Terminal Aerodrome Forecast
Issued by NWS

Home | Current Version | Previous Version | Graphics & Text | Print | Product List | Glossary On
Versions: 1 2 3 4 5 6 7 8 9 10 11 12 13 14 15 16 17 18 19 20 21
000
FTUS43 KTOP 260500
TAFMHK
TAF
KMHK 260520Z 2606/2706 VRB05KT P6SM VCTS BKN080CB
     FM260900 13005KT P6SM BKN100
     FM261400 04007KT P6SM SCT100
     FM261800 12008KT P6SM SCT080=

USA.gov is the U.S. government's official web portal to all federal, state and local government web resources and services.